Terminal Aerodrome Forecast
Issued by NWS

Home | Current Version | Previous Version | Text Only | Print | Product List | Glossary On
Versions: 1 2 3 4 5 6 7 8 9 10 11 12 13 14
000
FTUS42 KTBW 271100
TAFRSW
TAF
KRSW 271132Z 2712/2812 06004KT 6SM BR OVC005
      TEMPO 2712/2714 2SM BR OVC004
     FM271600 11006KT P6SM SCT015 OVC035
     FM272000 22006KT P6SM SCT025 BKN050
     FM280200 10003KT P6SM BKN050
     FM280900 VRB02KT 5SM BR SCT005 BKN010=

USA.gov is the U.S. government's official web portal to all federal, state and local government web resources and services.